createdAt,value
2022-10-09T00:01:52.460Z,2.40
2022-10-09T00:04:22.265Z,2.50
2022-10-09T00:06:54.653Z,2.28
2022-10-09T00:09:24.422Z,2.40
2022-10-09T00:11:54.279Z,1.90
2022-10-09T00:14:24.010Z,2.10
2022-10-09T00:16:53.830Z,2.00
2022-10-09T00:19:23.659Z,2.50
2022-10-09T00:21:56.021Z,2.53
2022-10-09T00:24:25.845Z,1.87
2022-10-09T00:26:55.582Z,1.85
2022-10-09T00:29:25.509Z,1.80
2022-10-09T00:31:55.285Z,2.17
2022-10-09T00:34:25.001Z,2.28
2022-10-09T00:36:57.338Z,1.70
2022-10-09T00:39:27.077Z,1.80
2022-10-09T00:41:56.784Z,1.80
2022-10-09T00:44:52.993Z,2.10
2022-10-09T00:47:28.182Z,1.90
2022-10-09T00:50:02.804Z,1.90
2022-10-09T00:52:35.638Z,1.80
2022-10-09T00:55:07.040Z,2.00
2022-10-09T00:57:37.342Z,1.73
2022-10-09T01:00:12.620Z,1.92
2022-10-09T01:02:42.805Z,1.90
2022-10-09T01:05:16.933Z,1.77
2022-10-09T01:07:55.597Z,2.10
2022-10-09T01:10:32.283Z,1.97
2022-10-09T01:13:09.441Z,1.83
2022-10-09T01:15:47.288Z,2.00
2022-10-09T01:18:25.100Z,2.00
2022-10-09T01:20:57.631Z,2.10
2022-10-09T01:23:51.073Z,2.00
2022-10-09T01:26:34.514Z,2.00
2022-10-09T01:29:10.927Z,2.10
2022-10-09T01:31:44.730Z,2.07
2022-10-09T01:34:16.392Z,2.10
2022-10-09T01:36:47.674Z,2.10
2022-10-09T01:39:20.297Z,2.27
2022-10-09T01:41:51.806Z,1.93
2022-10-09T01:44:25.653Z,2.33
2022-10-09T01:46:56.109Z,1.93
2022-10-09T01:49:42.108Z,2.10
2022-10-09T01:52:23.401Z,1.83
2022-10-09T01:55:03.830Z,1.67
2022-10-09T01:57:43.185Z,2.03
2022-10-09T02:00:16.793Z,2.10
2022-10-09T02:02:48.186Z,2.07
2022-10-09T02:05:22.125Z,2.03
2022-10-09T02:07:52.193Z,2.30
2022-10-09T02:10:24.369Z,2.30
2022-10-09T02:12:58.097Z,2.17
2022-10-09T02:15:34.368Z,2.03
2022-10-09T02:18:11.201Z,2.10
2022-10-09T02:20:47.301Z,2.00
2022-10-09T02:23:19.960Z,1.90
2022-10-09T02:25:49.762Z,2.37
2022-10-09T02:28:19.753Z,2.27
2022-10-09T02:30:58.643Z,2.00
2022-10-09T02:33:34.591Z,2.20
2022-10-09T02:36:04.926Z,2.03
2022-10-09T02:38:34.706Z,2.40
2022-10-09T02:41:05.025Z,2.30
2022-10-09T02:43:34.774Z,2.00
2022-10-09T02:46:07.237Z,2.30
2022-10-09T02:48:37.109Z,2.20
2022-10-09T02:51:07.074Z,1.90
2022-10-09T02:53:36.874Z,2.47
2022-10-09T02:56:06.670Z,2.33
2022-10-09T02:58:38.476Z,2.57
2022-10-09T03:01:10.815Z,2.30
2022-10-09T03:03:40.791Z,2.43
2022-10-09T03:06:12.801Z,2.40
2022-10-09T03:08:45.263Z,2.30
2022-10-09T03:11:16.892Z,2.53
2022-10-09T03:13:47.141Z,2.53
2022-10-09T03:16:21.462Z,2.60
2022-10-09T03:18:52.241Z,2.00
2022-10-09T03:21:23.509Z,2.33
2022-10-09T03:23:53.768Z,2.40
2022-10-09T03:26:25.248Z,2.23
2022-10-09T03:28:56.433Z,2.00
2022-10-09T03:34:19.821Z,2.23
2022-10-09T03:36:49.622Z,2.40
2022-10-09T03:39:19.322Z,2.50
2022-10-09T03:41:49.080Z,2.37
2022-10-09T03:44:18.792Z,2.40
2022-10-09T03:46:52.693Z,2.20
2022-10-09T03:49:22.490Z,2.77
2022-10-09T03:51:52.232Z,2.50
2022-10-09T03:54:21.975Z,2.67
2022-10-09T03:56:51.701Z,2.37
2022-10-09T03:59:21.438Z,2.50
2022-10-09T04:01:53.837Z,2.50
2022-10-09T04:04:23.576Z,2.50
2022-10-09T04:06:53.325Z,2.60
2022-10-09T04:09:23.037Z,2.80
2022-10-09T04:11:52.777Z,2.70
2022-10-09T04:14:22.534Z,2.93
2022-10-09T04:16:54.839Z,2.70
2022-10-09T04:19:24.745Z,2.80
2022-10-09T04:21:54.487Z,3.00
2022-10-09T04:24:24.178Z,2.33
2022-10-09T04:26:54.039Z,2.63
2022-10-09T04:29:23.879Z,2.90
2022-10-09T04:31:56.230Z,2.60
2022-10-09T04:34:26.371Z,2.83
2022-10-09T04:36:56.079Z,2.80
2022-10-09T04:39:25.814Z,2.50
2022-10-09T04:41:55.535Z,2.80
2022-10-09T04:44:25.298Z,2.60
2022-10-09T04:46:57.808Z,2.90
2022-10-09T04:49:27.582Z,3.03
2022-10-09T04:51:57.314Z,3.03
2022-10-09T04:54:27.050Z,3.20
2022-10-09T04:56:56.846Z,3.10
2022-10-09T04:59:26.587Z,2.63
2022-10-09T05:01:59.065Z,3.40
2022-10-09T05:04:28.950Z,2.90
2022-10-09T05:06:58.716Z,3.00
2022-10-09T05:09:28.586Z,3.00
2022-10-09T05:11:58.374Z,3.00
2022-10-09T05:14:28.189Z,3.07
2022-10-09T05:17:23.144Z,3.20
2022-10-09T05:19:53.331Z,3.80
2022-10-09T05:22:23.058Z,3.13
2022-10-09T05:24:52.842Z,3.50
2022-10-09T05:27:22.595Z,3.20
2022-10-09T05:29:52.324Z,3.47
2022-10-09T05:32:24.706Z,3.80
2022-10-09T05:34:54.443Z,3.73
2022-10-09T05:37:24.151Z,3.83
2022-10-09T05:39:53.854Z,3.70
2022-10-09T05:42:23.594Z,3.50
2022-10-09T05:44:53.323Z,3.33
2022-10-09T05:47:25.781Z,3.70
2022-10-09T05:49:55.534Z,3.67
2022-10-09T05:52:25.264Z,3.30
2022-10-09T05:54:57.027Z,3.10
2022-10-09T05:57:26.740Z,3.57
2022-10-09T05:59:56.462Z,3.50
2022-10-09T06:02:28.885Z,3.27
2022-10-09T06:04:58.860Z,4.00
2022-10-09T06:07:28.602Z,3.57
2022-10-09T06:09:58.346Z,4.00
2022-10-09T06:12:28.077Z,4.37
2022-10-09T06:14:57.971Z,4.17
2022-10-09T06:17:30.354Z,4.20
2022-10-09T06:20:00.131Z,3.87
2022-10-09T06:22:29.920Z,4.07
2022-10-09T06:24:59.676Z,4.20
2022-10-09T06:27:30.620Z,4.10
2022-10-09T06:30:01.279Z,4.00
2022-10-09T06:32:33.704Z,4.80
2022-10-09T06:35:03.469Z,4.70
2022-10-09T06:37:33.212Z,6.43
2022-10-09T06:40:03.000Z,6.37
2022-10-09T06:42:32.954Z,6.07
2022-10-09T06:45:02.727Z,5.10
2022-10-09T06:47:35.165Z,9.87
2022-10-09T06:50:04.919Z,4.80
2022-10-09T06:52:34.916Z,4.37
2022-10-09T06:55:04.646Z,4.93
2022-10-09T06:57:34.719Z,4.90
2022-10-09T07:00:04.545Z,5.13
2022-10-09T07:02:43.179Z,5.07
2022-10-09T07:05:13.779Z,5.33
2022-10-09T07:07:43.957Z,4.67
2022-10-09T07:10:13.839Z,4.57
2022-10-09T07:12:43.580Z,5.07
2022-10-09T07:15:14.127Z,4.70
2022-10-09T07:17:46.486Z,4.40
2022-10-09T07:20:16.210Z,4.70
2022-10-09T07:22:46.320Z,4.60
2022-10-09T07:25:16.432Z,4.33
2022-10-09T07:27:46.244Z,3.93
2022-10-09T07:30:16.320Z,4.20
2022-10-09T07:32:49.034Z,3.90
2022-10-09T07:35:19.239Z,4.00
2022-10-09T07:37:48.968Z,4.53
2022-10-09T07:40:21.145Z,4.10
2022-10-09T07:42:51.207Z,3.73
2022-10-09T07:45:21.131Z,3.60
2022-10-09T07:47:53.452Z,4.10
2022-10-09T07:50:23.235Z,3.60
2022-10-09T07:52:52.950Z,3.60
2022-10-09T07:55:22.695Z,3.23
2022-10-09T07:57:53.521Z,4.20
2022-10-09T08:00:23.329Z,3.80
2022-10-09T08:02:55.937Z,3.13
2022-10-09T08:05:25.737Z,3.15
2022-10-09T08:07:55.471Z,3.57
2022-10-09T08:10:25.247Z,3.23
2022-10-09T08:12:55.762Z,3.53
2022-10-09T08:15:25.659Z,2.87
2022-10-09T08:17:58.371Z,3.23
2022-10-09T08:20:28.112Z,3.25
2022-10-09T08:22:57.817Z,3.20
2022-10-09T08:25:27.683Z,3.53
2022-10-09T08:27:58.234Z,3.28
2022-10-09T08:30:27.987Z,3.50
2022-10-09T08:33:00.386Z,3.10
2022-10-09T08:35:34.416Z,3.70
2022-10-09T08:38:04.470Z,3.00
2022-10-09T08:40:42.073Z,3.00
2022-10-09T08:43:18.253Z,2.60
2022-10-09T08:45:50.337Z,2.97
2022-10-09T08:48:28.451Z,2.77
2022-10-09T08:51:01.802Z,2.92
2022-10-09T08:53:41.454Z,2.67
2022-10-09T08:56:17.062Z,2.90
2022-10-09T08:58:47.472Z,2.65
2022-10-09T09:01:25.825Z,2.45
2022-10-09T09:04:11.275Z,3.10
2022-10-09T09:06:49.169Z,3.20
2022-10-09T09:09:26.504Z,3.00
2022-10-09T09:12:02.400Z,2.92
2022-10-09T09:14:46.169Z,2.65
2022-10-09T09:17:26.368Z,3.00
2022-10-09T09:20:08.279Z,3.10
2022-10-09T09:22:42.830Z,2.97
2022-10-09T09:25:24.103Z,3.00
2022-10-09T09:27:56.946Z,2.97
2022-10-09T09:30:31.467Z,2.40
2022-10-09T09:33:10.357Z,2.70
2022-10-09T09:35:52.062Z,2.80
2022-10-09T09:38:21.833Z,2.80
2022-10-09T09:40:52.135Z,2.40
2022-10-09T09:43:24.550Z,7.47
2022-10-09T09:45:56.413Z,2.58
2022-10-09T09:48:35.091Z,2.15
2022-10-09T09:51:27.416Z,2.65
2022-10-09T09:54:01.992Z,2.33
2022-10-09T09:57:10.509Z,2.53
2022-10-09T09:59:35.110Z,2.13
2022-10-09T10:02:07.420Z,2.35
2022-10-09T10:04:42.451Z,2.10
2022-10-09T10:07:15.643Z,1.90
2022-10-09T10:09:45.389Z,2.42
2022-10-09T10:12:19.333Z,1.80
2022-10-09T10:14:53.375Z,1.77
2022-10-09T10:17:32.016Z,1.67
2022-10-09T10:20:01.869Z,2.10
2022-10-09T10:22:39.148Z,2.00
2022-10-09T10:25:18.077Z,2.03
2022-10-09T10:27:51.214Z,1.90
2022-10-09T10:30:22.665Z,2.15
2022-10-09T10:32:58.682Z,2.22
2022-10-09T10:35:32.081Z,1.80
2022-10-09T10:38:07.963Z,1.50
2022-10-09T10:40:40.438Z,2.10
2022-10-09T10:43:18.759Z,1.63
2022-10-09T10:45:59.418Z,1.70
2022-10-09T10:48:32.527Z,2.33
2022-10-09T10:51:11.079Z,1.98
2022-10-09T10:54:01.247Z,1.77
2022-10-09T10:56:34.416Z,1.77
2022-10-09T10:59:22.786Z,1.95
2022-10-09T11:02:03.898Z,1.80
2022-10-09T11:04:42.787Z,1.42
2022-10-09T11:07:29.433Z,1.75
2022-10-09T11:10:12.217Z,1.40
2022-10-09T11:12:52.110Z,1.63
2022-10-09T11:15:31.002Z,1.42
2022-10-09T11:18:12.130Z,1.60
2022-10-09T11:20:57.212Z,1.60
2022-10-09T11:23:36.081Z,1.60
2022-10-09T11:26:18.127Z,2.00
2022-10-09T11:28:54.931Z,1.40
2022-10-09T11:31:31.382Z,1.50
2022-10-09T11:34:07.366Z,1.67
2022-10-09T11:36:45.482Z,1.45
2022-10-09T11:39:18.864Z,1.38
2022-10-09T11:41:55.523Z,1.45
2022-10-09T11:44:40.280Z,1.60
2022-10-09T11:47:17.592Z,1.58
2022-10-09T11:50:00.621Z,1.90
2022-10-09T11:52:42.489Z,1.20
2022-10-09T11:55:22.261Z,1.50
2022-10-09T11:57:54.645Z,1.30
2022-10-09T12:00:34.503Z,1.83
2022-10-09T12:03:07.117Z,1.30
2022-10-09T12:05:42.948Z,1.23
2022-10-09T12:08:19.249Z,1.92
2022-10-09T12:10:55.468Z,1.30
2022-10-09T12:13:43.944Z,1.30
2022-10-09T12:16:29.820Z,1.52
2022-10-09T12:19:01.938Z,1.20
2022-10-09T12:21:37.188Z,2.00
2022-10-09T12:24:07.700Z,1.27
2022-10-09T12:26:38.678Z,0.93
2022-10-09T12:29:22.072Z,1.15
2022-10-09T12:31:54.433Z,1.60
2022-10-09T12:34:27.877Z,1.40
2022-10-09T12:37:13.900Z,1.38
2022-10-09T12:39:44.013Z,1.35
2022-10-09T12:42:20.432Z,1.15
2022-10-09T12:44:56.059Z,1.00
2022-10-09T12:47:29.523Z,1.27
2022-10-09T12:50:02.044Z,1.45
2022-10-09T12:52:33.492Z,1.40
2022-10-09T12:55:05.200Z,1.40
2022-10-09T12:57:36.220Z,1.38
2022-10-09T13:00:09.739Z,1.08
2022-10-09T13:02:39.661Z,1.15
2022-10-09T13:05:10.205Z,1.23
2022-10-09T13:07:40.201Z,1.45
2022-10-09T13:10:19.879Z,1.38
2022-10-09T13:12:54.666Z,1.30
2022-10-09T13:15:35.405Z,1.83
2022-10-09T13:18:22.740Z,1.60
2022-10-09T13:21:01.994Z,1.20
2022-10-09T13:23:34.127Z,1.30
2022-10-09T13:26:05.206Z,1.00
2022-10-09T13:28:35.220Z,1.70
2022-10-09T13:31:15.325Z,1.42
2022-10-09T13:33:45.115Z,1.67
2022-10-09T13:36:15.570Z,1.60
2022-10-09T13:38:45.799Z,1.40
2022-10-09T13:41:17.540Z,1.70
2022-10-09T13:43:47.833Z,1.50
2022-10-09T13:46:20.268Z,1.42
2022-10-09T13:48:50.253Z,1.50
2022-10-09T13:51:20.065Z,1.40
2022-10-09T13:53:50.116Z,1.50
2022-10-09T13:56:20.034Z,1.70
2022-10-09T13:58:49.843Z,1.50
2022-10-09T14:01:22.432Z,2.10
2022-10-09T14:03:52.435Z,1.60
2022-10-09T14:06:22.619Z,1.60
2022-10-09T14:08:52.844Z,1.98
2022-10-09T14:11:22.926Z,2.35
2022-10-09T14:13:52.792Z,1.77
2022-10-09T14:16:25.280Z,1.65
2022-10-09T14:18:58.434Z,1.70
2022-10-09T14:21:29.142Z,1.50
2022-10-09T14:24:00.438Z,2.47
2022-10-09T14:26:31.240Z,2.33
2022-10-09T14:29:03.147Z,2.05
2022-10-09T14:31:35.766Z,2.35
2022-10-09T14:34:05.868Z,2.60
2022-10-09T14:36:37.296Z,2.75
2022-10-09T14:39:07.401Z,2.60
2022-10-09T14:41:38.049Z,2.40
2022-10-09T14:44:08.487Z,2.45
2022-10-09T14:46:40.902Z,3.30
2022-10-09T14:49:13.265Z,2.53
2022-10-09T14:51:44.016Z,2.58
2022-10-09T14:54:15.290Z,2.35
2022-10-09T14:56:45.159Z,2.78
2022-10-09T14:59:15.168Z,2.45
2022-10-09T15:01:47.607Z,2.60
2022-10-09T15:04:17.694Z,2.42
2022-10-09T15:06:47.451Z,2.55
2022-10-09T15:09:17.216Z,2.88
2022-10-09T15:11:47.007Z,3.13
2022-10-09T15:14:16.730Z,3.42
2022-10-09T15:16:49.024Z,3.28
2022-10-09T15:19:18.733Z,2.80
2022-10-09T15:21:48.488Z,3.30
2022-10-09T15:24:18.178Z,3.33
2022-10-09T15:26:47.892Z,2.60
2022-10-09T15:29:17.678Z,3.00
2022-10-09T15:31:52.932Z,2.88
2022-10-09T15:34:23.082Z,3.13
2022-10-09T15:36:52.783Z,2.33
2022-10-09T15:39:23.747Z,2.60
2022-10-09T15:41:53.546Z,2.70
2022-10-09T15:44:23.860Z,2.50
2022-10-09T15:46:56.193Z,2.53
2022-10-09T15:49:25.912Z,2.30
2022-10-09T15:51:55.733Z,2.25
2022-10-09T15:54:25.582Z,2.40
2022-10-09T15:56:55.336Z,2.30
2022-10-09T15:59:25.890Z,2.30
2022-10-09T16:01:58.442Z,2.83
2022-10-09T16:04:28.204Z,2.65
2022-10-09T16:06:58.267Z,2.60
2022-10-09T16:09:27.962Z,3.08
2022-10-09T16:11:57.670Z,3.50
2022-10-09T16:14:30.228Z,2.55
2022-10-09T16:17:03.921Z,2.15
2022-10-09T16:19:34.383Z,2.55
2022-10-09T16:22:05.278Z,2.45
2022-10-09T16:24:35.121Z,2.63
2022-10-09T16:27:04.888Z,2.85
2022-10-09T16:29:34.620Z,2.38
2022-10-09T16:32:07.052Z,2.60
2022-10-09T16:34:36.782Z,2.70
2022-10-09T16:37:06.589Z,2.40
2022-10-09T16:39:36.539Z,2.20
2022-10-09T16:42:06.807Z,2.35
2022-10-09T16:44:36.553Z,2.00
2022-10-09T16:47:08.986Z,2.65
2022-10-09T16:49:38.717Z,2.60
2022-10-09T16:52:08.482Z,2.70
2022-10-09T16:54:39.099Z,2.30
2022-10-09T16:57:08.856Z,2.45
2022-10-09T16:59:38.741Z,2.60
2022-10-09T17:02:13.293Z,2.60
2022-10-09T17:04:43.622Z,2.15
2022-10-09T17:07:14.242Z,3.15
2022-10-09T17:09:44.034Z,3.03
2022-10-09T17:12:13.948Z,3.20
2022-10-09T17:14:43.896Z,2.95
2022-10-09T17:17:16.574Z,2.70
2022-10-09T17:19:46.345Z,3.22
2022-10-09T17:22:16.123Z,2.95
2022-10-09T17:24:46.082Z,3.15
2022-10-09T17:27:15.904Z,3.10
2022-10-09T17:29:45.965Z,3.00
2022-10-09T17:32:18.485Z,3.10
2022-10-09T17:34:48.429Z,3.25
2022-10-09T17:37:18.163Z,2.80
2022-10-09T17:39:52.040Z,3.30
2022-10-09T17:42:22.220Z,2.85
2022-10-09T17:44:51.957Z,2.35
2022-10-09T17:47:24.405Z,3.10
2022-10-09T17:49:54.850Z,3.15
2022-10-09T17:52:24.650Z,3.10
2022-10-09T17:54:54.609Z,3.20
2022-10-09T17:57:24.411Z,3.30
2022-10-09T17:59:54.516Z,3.63
2022-10-09T18:02:27.043Z,3.60
2022-10-09T18:04:58.276Z,3.25
2022-10-09T18:07:28.384Z,3.05
2022-10-09T18:09:58.267Z,3.15
2022-10-09T18:12:28.067Z,2.88
2022-10-09T18:14:59.420Z,3.30
2022-10-09T18:17:33.647Z,2.90
2022-10-09T18:20:03.550Z,3.13
2022-10-09T18:22:33.345Z,3.42
2022-10-09T18:25:03.164Z,3.40
2022-10-09T18:27:32.990Z,3.42
2022-10-09T18:30:02.896Z,3.10
2022-10-09T18:32:35.413Z,3.65
2022-10-09T18:35:05.238Z,4.28
2022-10-09T18:37:35.168Z,3.35
2022-10-09T18:40:05.054Z,3.38
2022-10-09T18:42:34.957Z,3.70
2022-10-09T18:45:05.504Z,3.80
2022-10-09T18:47:38.844Z,3.90
2022-10-09T18:50:12.188Z,4.30
2022-10-09T18:52:44.380Z,4.45
2022-10-09T18:55:17.731Z,4.25
2022-10-09T18:57:49.013Z,3.65
2022-10-09T19:00:19.780Z,3.97
2022-10-09T19:02:52.352Z,4.13
2022-10-09T19:05:22.374Z,4.05
2022-10-09T19:07:52.600Z,4.50
2022-10-09T19:10:22.676Z,4.10
2022-10-09T19:12:52.747Z,3.70
2022-10-09T19:15:22.717Z,4.40
2022-10-09T19:17:55.252Z,3.80
2022-10-09T19:20:25.124Z,4.20
2022-10-09T19:22:55.086Z,3.55
2022-10-09T19:25:25.548Z,4.20
2022-10-09T19:27:55.380Z,4.43
2022-10-09T19:30:25.258Z,4.35
2022-10-09T19:32:57.881Z,19.27
2022-10-09T19:35:27.635Z,4.20
2022-10-09T19:37:59.221Z,4.88
2022-10-09T19:40:28.984Z,4.20
2022-10-09T19:42:58.679Z,4.43
2022-10-09T19:45:28.412Z,4.60
2022-10-09T19:48:01.093Z,4.50
2022-10-09T19:50:31.196Z,4.50
2022-10-09T19:53:04.380Z,4.10
2022-10-09T19:55:35.524Z,4.10
2022-10-09T19:58:06.826Z,4.28
2022-10-09T20:00:36.904Z,4.40
2022-10-09T20:03:09.306Z,4.10
2022-10-09T20:05:39.142Z,4.67
2022-10-09T20:08:09.248Z,4.40
2022-10-09T20:10:41.658Z,3.67
2022-10-09T20:13:11.365Z,4.40
2022-10-09T20:15:44.831Z,4.17
2022-10-09T20:18:17.162Z,4.20
2022-10-09T20:20:49.911Z,4.20
2022-10-09T20:23:19.612Z,4.47
2022-10-09T20:25:50.202Z,4.40
2022-10-09T20:28:20.024Z,4.13
2022-10-09T20:30:58.605Z,4.27
2022-10-09T20:33:31.150Z,4.20
2022-10-09T20:36:00.856Z,4.33
2022-10-09T20:38:30.875Z,4.07
2022-10-09T20:41:06.758Z,4.30
2022-10-09T20:43:36.546Z,4.37
2022-10-09T20:46:09.245Z,3.97
2022-10-09T20:48:41.606Z,4.30
2022-10-09T20:51:11.464Z,4.68
2022-10-09T20:53:41.366Z,4.37
2022-10-09T20:56:12.831Z,5.30
2022-10-09T20:58:42.956Z,4.43
2022-10-09T21:01:16.321Z,5.43
2022-10-09T21:03:48.697Z,4.33
2022-10-09T21:06:20.116Z,4.87
2022-10-09T21:08:50.319Z,4.30
2022-10-09T21:11:21.690Z,4.43
2022-10-09T21:13:52.413Z,4.50
2022-10-09T21:16:23.534Z,4.13
2022-10-09T21:19:00.469Z,4.18
2022-10-09T21:21:31.656Z,4.77
2022-10-09T21:24:02.610Z,3.67
2022-10-09T21:26:35.647Z,4.40
2022-10-09T21:29:06.889Z,4.20
2022-10-09T21:31:37.152Z,4.60
2022-10-09T21:34:09.481Z,4.03
2022-10-09T21:37:02.284Z,4.13
2022-10-09T21:39:33.507Z,4.47
2022-10-09T21:42:03.262Z,4.60
2022-10-09T21:44:33.003Z,4.07
2022-10-09T21:47:02.879Z,3.80
2022-10-09T21:49:35.212Z,4.40
2022-10-09T21:52:04.934Z,4.28
2022-10-09T21:54:34.644Z,4.30
2022-10-09T21:57:04.430Z,4.00
2022-10-09T21:59:34.182Z,4.33
2022-10-09T22:02:03.925Z,3.88
2022-10-09T22:04:36.540Z,3.80
2022-10-09T22:07:06.266Z,4.30
2022-10-09T22:09:35.981Z,3.97
2022-10-09T22:12:05.754Z,4.13
2022-10-09T22:14:35.476Z,4.00
2022-10-09T22:17:05.186Z,3.33
2022-10-09T22:19:37.555Z,4.00
2022-10-09T22:22:07.270Z,4.20
2022-10-09T22:24:37.002Z,3.93
2022-10-09T22:27:07.489Z,3.90
2022-10-09T22:29:38.355Z,3.73
2022-10-09T22:32:08.941Z,3.23
2022-10-09T22:34:41.313Z,3.07
2022-10-09T22:37:11.043Z,3.33
2022-10-09T22:39:40.766Z,3.97
2022-10-09T22:42:10.484Z,3.40
2022-10-09T22:44:40.485Z,3.40
2022-10-09T22:47:10.303Z,3.58
2022-10-09T22:49:42.713Z,3.40
2022-10-09T22:52:12.460Z,3.90
2022-10-09T22:54:42.193Z,3.60
2022-10-09T22:57:11.926Z,3.77
2022-10-09T22:59:41.628Z,3.70
2022-10-09T23:02:11.504Z,3.80
2022-10-09T23:04:43.854Z,3.77
2022-10-09T23:07:13.694Z,3.00
2022-10-09T23:09:43.826Z,3.20
2022-10-09T23:12:13.550Z,3.53
2022-10-09T23:14:43.562Z,3.47
2022-10-09T23:17:13.314Z,3.17
2022-10-09T23:19:45.696Z,3.57
2022-10-09T23:22:15.377Z,3.70
2022-10-09T23:24:45.233Z,3.73
2022-10-09T23:27:14.972Z,4.00
2022-10-09T23:29:44.663Z,3.87
2022-10-09T23:32:14.392Z,3.67
2022-10-09T23:34:46.906Z,3.30
2022-10-09T23:37:16.627Z,3.53
2022-10-09T23:39:46.334Z,3.80
2022-10-09T23:42:16.046Z,3.42
2022-10-09T23:44:45.752Z,3.60
2022-10-09T23:47:15.495Z,3.73
2022-10-09T23:49:47.786Z,4.83
2022-10-09T23:52:17.504Z,3.97
2022-10-09T23:54:47.201Z,3.90
2022-10-09T23:57:16.910Z,3.63
2022-10-09T23:59:46.831Z,4.00
